createdAt,value
2023-03-03T00:01:45.330Z,9.94
2023-03-03T00:04:13.755Z,9.93
2023-03-03T00:06:42.198Z,9.90
2023-03-03T00:09:10.591Z,9.89
2023-03-03T00:11:40.384Z,9.88
2023-03-03T00:14:23.204Z,9.86
2023-03-03T00:16:51.697Z,9.86
2023-03-03T00:19:21.942Z,9.84
2023-03-03T00:21:52.353Z,9.84
2023-03-03T00:24:24.545Z,9.82
2023-03-03T00:26:56.556Z,9.80
2023-03-03T00:29:35.906Z,9.78
2023-03-03T00:32:27.192Z,9.76
2023-03-03T00:34:57.585Z,9.75
2023-03-03T00:37:33.411Z,9.73
2023-03-03T00:40:19.977Z,9.70
2023-03-03T00:42:53.273Z,9.69
2023-03-03T00:45:36.478Z,9.67
2023-03-03T00:48:29.898Z,9.64
2023-03-03T00:51:00.159Z,9.64
2023-03-03T00:53:30.379Z,9.64
2023-03-03T00:55:59.451Z,9.62
2023-03-03T00:58:29.738Z,9.62
2023-03-03T01:00:58.925Z,9.61
2023-03-03T01:03:28.751Z,9.61
2023-03-03T01:05:57.291Z,9.60
2023-03-03T01:08:26.349Z,9.59
2023-03-03T01:10:58.486Z,9.57
2023-03-03T01:13:32.545Z,9.55
2023-03-03T01:16:01.377Z,9.55
2023-03-03T01:18:30.851Z,9.55
2023-03-03T01:20:59.415Z,9.55
2023-03-03T01:23:27.882Z,9.54
2023-03-03T01:25:56.453Z,9.54
2023-03-03T01:28:24.932Z,9.54
2023-03-03T01:30:55.147Z,9.54
2023-03-03T01:33:23.689Z,9.54
2023-03-03T01:35:52.152Z,9.53
2023-03-03T01:38:20.607Z,9.52
2023-03-03T01:40:56.091Z,9.50
2023-03-03T01:43:25.121Z,9.50
2023-03-03T01:46:53.593Z,9.44
2023-03-03T01:49:28.155Z,9.40
2023-03-03T01:52:02.817Z,9.41
2023-03-03T01:54:36.781Z,9.41
2023-03-03T01:57:13.280Z,9.42
2023-03-03T01:59:48.714Z,9.42
2023-03-03T02:02:18.763Z,9.43
2023-03-03T02:04:47.587Z,9.46
2023-03-03T02:07:17.835Z,9.47
2023-03-03T02:09:56.281Z,9.50
2023-03-03T02:12:33.588Z,9.53
2023-03-03T02:15:02.033Z,9.57
2023-03-03T02:17:32.007Z,9.61
2023-03-03T02:20:07.637Z,9.64
2023-03-03T02:22:45.357Z,9.69
2023-03-03T02:25:23.657Z,9.72
2023-03-03T02:27:53.937Z,9.75
2023-03-03T02:30:26.125Z,9.78
2023-03-03T02:32:54.568Z,9.81
2023-03-03T02:35:36.079Z,9.83
2023-03-03T02:38:15.910Z,9.83
2023-03-03T02:40:54.771Z,9.83
2023-03-03T02:43:29.299Z,9.85
2023-03-03T02:45:57.992Z,9.84
2023-03-03T02:48:26.493Z,9.83
2023-03-03T02:50:54.913Z,9.82
2023-03-03T02:53:23.405Z,9.81
2023-03-03T02:55:51.889Z,9.81
2023-03-03T02:58:20.392Z,9.80
2023-03-03T03:00:50.208Z,9.79
2023-03-03T03:03:18.779Z,9.81
2023-03-03T03:05:47.204Z,9.81
2023-03-03T03:08:15.681Z,9.83
2023-03-03T03:10:44.252Z,9.86
2023-03-03T03:13:12.977Z,9.87
2023-03-03T03:15:41.523Z,9.89
2023-03-03T03:18:11.323Z,9.91
2023-03-03T03:20:41.699Z,9.93
2023-03-03T03:23:11.455Z,9.94
2023-03-03T03:25:45.342Z,9.94
2023-03-03T03:28:13.920Z,9.93
2023-03-03T03:30:44.228Z,9.90
2023-03-03T03:33:14.442Z,9.86
2023-03-03T03:35:45.739Z,9.82
2023-03-03T03:38:15.295Z,9.75
2023-03-03T03:40:44.650Z,9.66
2023-03-03T03:43:13.128Z,9.58
2023-03-03T03:45:44.453Z,9.48
2023-03-03T03:48:14.455Z,9.38
2023-03-03T03:50:42.856Z,9.29
2023-03-03T03:53:11.351Z,9.23
2023-03-03T03:55:39.761Z,9.14
2023-03-03T03:58:08.257Z,9.08
2023-03-03T04:00:36.708Z,9.01
2023-03-03T04:03:05.398Z,8.95
2023-03-03T04:05:35.344Z,8.90
2023-03-03T04:08:04.113Z,8.85
2023-03-03T04:10:32.668Z,8.80
2023-03-03T04:13:01.144Z,8.75
2023-03-03T04:15:29.873Z,8.71
2023-03-03T04:17:58.344Z,8.68
2023-03-03T04:20:26.759Z,8.65
2023-03-03T04:22:56.817Z,8.62
2023-03-03T04:25:25.372Z,8.60
2023-03-03T04:27:54.373Z,8.56
2023-03-03T04:30:23.205Z,8.54
2023-03-03T04:32:53.269Z,8.53
2023-03-03T04:35:21.816Z,8.49
2023-03-03T04:37:50.325Z,8.45
2023-03-03T04:40:20.510Z,8.44
2023-03-03T04:42:49.012Z,8.43
2023-03-03T04:45:17.725Z,8.42
2023-03-03T04:47:46.159Z,8.41
2023-03-03T04:50:14.699Z,8.41
2023-03-03T04:52:43.162Z,8.40
2023-03-03T04:55:12.397Z,8.38
2023-03-03T04:57:42.200Z,8.39
2023-03-03T05:00:13.498Z,8.37
2023-03-03T05:02:42.578Z,8.38
2023-03-03T05:05:11.800Z,8.35
2023-03-03T05:07:40.301Z,8.35
2023-03-03T05:10:10.508Z,8.33
2023-03-03T05:12:38.962Z,8.33
2023-03-03T05:15:10.162Z,8.32
2023-03-03T05:17:38.804Z,8.31
2023-03-03T05:20:10.351Z,8.29
2023-03-03T05:22:38.745Z,8.28
2023-03-03T05:25:09.903Z,8.26
2023-03-03T05:27:38.364Z,8.24
2023-03-03T05:30:11.267Z,8.20
2023-03-03T05:32:39.876Z,8.18
2023-03-03T05:35:09.557Z,8.15
2023-03-03T05:37:40.209Z,8.13
2023-03-03T05:40:10.914Z,8.10
2023-03-03T05:42:39.341Z,8.09
2023-03-03T05:45:11.113Z,8.06
2023-03-03T05:47:39.699Z,8.06
2023-03-03T05:50:09.222Z,8.07
2023-03-03T05:52:37.650Z,8.08
2023-03-03T05:55:07.468Z,8.10
2023-03-03T05:57:35.941Z,8.14
2023-03-03T06:00:06.101Z,8.18
2023-03-03T06:02:36.175Z,8.23
2023-03-03T06:05:04.908Z,8.28
2023-03-03T06:07:33.357Z,8.34
2023-03-03T06:10:01.860Z,8.41
2023-03-03T06:12:30.338Z,8.48
2023-03-03T06:14:58.822Z,8.56
2023-03-03T06:17:27.285Z,8.62
2023-03-03T06:19:57.114Z,8.68
2023-03-03T06:22:25.622Z,8.78
2023-03-03T06:24:54.081Z,8.83
2023-03-03T06:27:22.745Z,8.90
2023-03-03T06:29:51.188Z,8.96
2023-03-03T06:32:19.686Z,9.04
2023-03-03T06:34:48.170Z,9.13
2023-03-03T06:37:18.073Z,9.24
2023-03-03T06:39:46.498Z,9.33
2023-03-03T06:42:14.940Z,9.45
2023-03-03T06:44:43.393Z,9.55
2023-03-03T06:47:11.888Z,9.64
2023-03-03T06:49:40.320Z,9.72
2023-03-03T06:52:14.884Z,9.78
2023-03-03T06:54:44.688Z,9.83
2023-03-03T06:57:21.737Z,9.87
2023-03-03T06:59:55.456Z,9.92
2023-03-03T07:02:24.636Z,9.98
2023-03-03T07:04:54.651Z,10.04
2023-03-03T07:07:26.153Z,10.11
2023-03-03T07:09:57.840Z,10.17
2023-03-03T07:12:30.933Z,10.24
2023-03-03T07:15:14.542Z,10.33
2023-03-03T07:17:49.788Z,10.43
2023-03-03T07:20:23.497Z,10.56
2023-03-03T07:22:53.705Z,10.68
2023-03-03T07:25:32.978Z,10.75
2023-03-03T07:28:13.350Z,10.78
2023-03-03T07:30:43.407Z,10.80
2023-03-03T07:33:26.230Z,10.80
2023-03-03T07:35:56.829Z,10.80
2023-03-03T07:38:32.517Z,10.80
2023-03-03T07:41:06.403Z,10.81
2023-03-03T07:43:40.401Z,10.85
2023-03-03T07:46:32.179Z,10.89
2023-03-03T07:49:01.612Z,10.96
2023-03-03T07:51:39.610Z,11.01
2023-03-03T07:54:36.398Z,11.03
2023-03-03T07:57:20.317Z,11.07
2023-03-03T07:59:51.290Z,11.12
2023-03-03T08:02:39.067Z,11.33
2023-03-03T08:05:34.849Z,11.40
2023-03-03T08:08:31.545Z,11.52
2023-03-03T08:11:01.808Z,11.66
2023-03-03T08:13:40.117Z,11.80
2023-03-03T08:16:36.804Z,11.96
2023-03-03T08:19:07.421Z,12.13
2023-03-03T08:21:37.883Z,12.29
2023-03-03T08:24:07.364Z,12.46
2023-03-03T08:26:35.970Z,12.65
2023-03-03T08:29:05.841Z,12.83
2023-03-03T08:31:41.209Z,13.20
2023-03-03T08:34:10.446Z,13.32
2023-03-03T08:36:38.956Z,13.50
2023-03-03T08:39:07.522Z,13.59
2023-03-03T08:41:36.075Z,13.83
2023-03-03T08:44:06.282Z,13.91
2023-03-03T08:46:34.921Z,14.05
2023-03-03T08:49:03.511Z,14.21
2023-03-03T08:51:34.253Z,14.33
2023-03-03T08:54:02.796Z,14.46
2023-03-03T08:56:31.337Z,14.59
2023-03-03T08:59:02.449Z,14.69
2023-03-03T09:01:33.391Z,14.78
2023-03-03T09:04:02.105Z,14.87
2023-03-03T09:06:30.730Z,14.92
2023-03-03T09:08:59.321Z,14.95
2023-03-03T09:11:30.942Z,14.92
2023-03-03T09:14:08.919Z,14.91
2023-03-03T09:16:41.376Z,14.90
2023-03-03T09:19:26.221Z,14.93
2023-03-03T09:21:56.836Z,14.98
2023-03-03T09:24:30.799Z,14.99
2023-03-03T09:27:00.549Z,14.99
2023-03-03T09:29:30.809Z,14.94
2023-03-03T09:32:03.446Z,14.91
2023-03-03T09:34:41.771Z,14.86
2023-03-03T09:37:23.964Z,14.83
2023-03-03T09:39:55.519Z,14.84
2023-03-03T09:42:58.883Z,14.82
2023-03-03T09:45:53.999Z,14.85
2023-03-03T09:48:50.452Z,14.84
2023-03-03T09:51:50.840Z,14.79
2023-03-03T09:54:38.593Z,14.81
2023-03-03T09:57:14.882Z,14.83
2023-03-03T10:00:05.635Z,14.82
2023-03-03T10:02:47.739Z,14.80
2023-03-03T10:05:30.187Z,14.79
2023-03-03T10:08:23.126Z,14.75
2023-03-03T10:11:03.409Z,14.73
2023-03-03T10:13:57.936Z,14.66
2023-03-03T10:16:55.235Z,14.64
2023-03-03T10:19:38.572Z,14.61
2023-03-03T10:22:25.840Z,14.55
2023-03-03T10:25:19.410Z,14.51
2023-03-03T10:28:20.851Z,14.54
2023-03-03T10:31:10.699Z,14.56
2023-03-03T10:33:48.261Z,14.57
2023-03-03T10:36:50.722Z,14.58
2023-03-03T10:39:44.336Z,14.59
2023-03-03T10:42:38.083Z,14.60
2023-03-03T10:45:43.106Z,14.61
2023-03-03T10:48:39.888Z,14.80
2023-03-03T10:51:26.529Z,15.14
2023-03-03T10:54:09.508Z,15.56
2023-03-03T10:56:53.324Z,16.00
2023-03-03T10:59:49.501Z,16.48
2023-03-03T11:02:24.275Z,16.88
2023-03-03T11:05:20.370Z,17.30
2023-03-03T11:07:55.465Z,17.72
2023-03-03T11:10:40.249Z,18.10
2023-03-03T11:13:19.976Z,18.51
2023-03-03T11:16:29.253Z,18.84
2023-03-03T11:19:14.059Z,19.21
2023-03-03T11:21:52.391Z,19.51
2023-03-03T11:24:54.250Z,19.72
2023-03-03T11:27:38.084Z,19.90
2023-03-03T11:30:35.839Z,20.10
2023-03-03T11:33:09.248Z,20.38
2023-03-03T11:35:46.441Z,20.66
2023-03-03T11:38:41.964Z,20.96
2023-03-03T11:41:20.512Z,21.24
2023-03-03T11:43:54.155Z,21.56
2023-03-03T11:46:31.012Z,21.83
2023-03-03T11:49:04.859Z,22.09
2023-03-03T11:51:48.898Z,22.32
2023-03-03T11:54:25.099Z,22.50
2023-03-03T11:57:06.603Z,22.75
2023-03-03T11:59:49.341Z,23.03
2023-03-03T12:02:45.309Z,23.34
2023-03-03T12:05:24.031Z,23.59
2023-03-03T12:08:02.905Z,23.76
2023-03-03T12:10:37.841Z,23.97
2023-03-03T12:13:16.986Z,24.21
2023-03-03T12:15:55.967Z,24.40
2023-03-03T12:18:51.774Z,24.64
2023-03-03T12:21:42.155Z,24.92
2023-03-03T12:24:35.373Z,25.12
2023-03-03T12:27:20.731Z,25.37
2023-03-03T12:30:06.382Z,25.38
2023-03-03T12:32:58.562Z,25.42
2023-03-03T12:35:37.902Z,25.48
2023-03-03T12:38:17.643Z,25.36
2023-03-03T12:40:53.767Z,25.08
2023-03-03T12:43:40.880Z,25.07
2023-03-03T12:46:17.857Z,25.20
2023-03-03T12:48:48.299Z,25.22
2023-03-03T12:51:35.174Z,25.13
2023-03-03T12:54:39.907Z,25.17
2023-03-03T12:57:20.806Z,25.43
2023-03-03T13:00:14.969Z,25.71
2023-03-03T13:02:56.704Z,26.12
2023-03-03T13:05:31.491Z,26.33
2023-03-03T13:08:42.331Z,26.51
2023-03-03T13:11:36.741Z,26.59
2023-03-03T13:14:22.634Z,26.70
2023-03-03T13:17:02.953Z,26.93
2023-03-03T13:19:37.498Z,27.17
2023-03-03T13:22:13.984Z,27.35
2023-03-03T13:24:58.033Z,27.39
2023-03-03T13:27:33.630Z,27.43
2023-03-03T13:30:10.011Z,27.38
2023-03-03T13:32:45.189Z,27.40
2023-03-03T13:35:30.345Z,27.52
2023-03-03T13:38:00.613Z,27.61
2023-03-03T13:40:42.063Z,27.76
2023-03-03T13:43:18.746Z,27.82
2023-03-03T13:46:00.261Z,27.60
2023-03-03T13:49:24.728Z,27.58
2023-03-03T13:52:01.793Z,27.67
2023-03-03T13:55:03.511Z,27.43
2023-03-03T13:57:52.832Z,26.67
2023-03-03T14:00:32.040Z,25.84
2023-03-03T14:03:57.545Z,24.63
2023-03-03T14:06:29.025Z,23.90
2023-03-03T14:09:22.116Z,23.15
2023-03-03T14:11:57.863Z,22.52
2023-03-03T14:14:44.931Z,21.91
2023-03-03T14:17:27.153Z,21.43
2023-03-03T14:20:12.722Z,20.98
2023-03-03T14:22:52.527Z,20.62
2023-03-03T14:25:21.619Z,20.34
2023-03-03T14:28:10.793Z,20.02
2023-03-03T14:30:42.367Z,19.77
2023-03-03T14:33:22.388Z,19.51
2023-03-03T14:36:06.437Z,19.29
2023-03-03T14:38:48.339Z,19.06
2023-03-03T14:41:21.399Z,18.85
2023-03-03T14:44:00.832Z,18.66
2023-03-03T14:46:40.822Z,18.53
2023-03-03T14:49:17.450Z,18.41
2023-03-03T14:51:48.640Z,18.33
2023-03-03T14:54:25.915Z,18.24
2023-03-03T14:57:08.332Z,18.19
2023-03-03T14:59:36.943Z,18.13
2023-03-03T15:02:37.892Z,18.01
2023-03-03T15:05:31.892Z,17.91
2023-03-03T15:08:12.391Z,17.85
2023-03-03T15:10:42.992Z,17.80
2023-03-03T15:13:36.596Z,17.73
2023-03-03T15:16:13.340Z,17.69
2023-03-03T15:19:32.589Z,17.60
2023-03-03T15:22:11.799Z,17.56
2023-03-03T15:24:47.607Z,17.50
2023-03-03T15:27:25.791Z,17.46
2023-03-03T15:30:10.882Z,17.40
2023-03-03T15:32:48.541Z,17.35
2023-03-03T15:35:33.983Z,17.30
2023-03-03T15:38:12.293Z,17.26
2023-03-03T15:40:49.117Z,17.18
2023-03-03T15:43:28.412Z,17.10
2023-03-03T15:46:17.497Z,17.02
2023-03-03T15:49:06.063Z,16.95
2023-03-03T15:52:03.884Z,16.88
2023-03-03T15:54:50.150Z,16.80
2023-03-03T15:57:28.311Z,16.73
2023-03-03T16:00:22.760Z,16.68
2023-03-03T16:02:58.813Z,16.62
2023-03-03T16:05:32.240Z,16.55
2023-03-03T16:08:13.794Z,16.49
2023-03-03T16:10:58.835Z,16.40
2023-03-03T16:14:01.790Z,16.32
2023-03-03T16:16:44.200Z,16.26
2023-03-03T16:19:28.923Z,16.20
2023-03-03T16:22:23.739Z,16.11
2023-03-03T16:25:11.676Z,16.05
2023-03-03T16:27:49.359Z,15.99
2023-03-03T16:30:37.150Z,15.91
2023-03-03T16:33:20.856Z,15.84
2023-03-03T16:35:58.653Z,15.77
2023-03-03T16:38:36.884Z,15.69
2023-03-03T16:41:14.073Z,15.62
2023-03-03T16:44:05.911Z,15.55
2023-03-03T16:46:39.892Z,15.50
2023-03-03T16:49:15.427Z,15.42
2023-03-03T16:51:51.457Z,15.37
2023-03-03T16:54:31.857Z,15.31
2023-03-03T16:57:12.749Z,15.24
2023-03-03T16:59:57.075Z,15.16
2023-03-03T17:03:18.213Z,15.06
2023-03-03T17:05:56.951Z,15.03
2023-03-03T17:09:00.478Z,14.96
2023-03-03T17:11:44.604Z,14.91
2023-03-03T17:14:35.620Z,14.85
2023-03-03T17:17:14.916Z,14.81
2023-03-03T17:19:58.585Z,14.77
2023-03-03T17:22:42.777Z,14.73
2023-03-03T17:25:20.830Z,14.67
2023-03-03T17:28:20.570Z,14.60
2023-03-03T17:31:03.660Z,14.54
2023-03-03T17:34:02.463Z,14.48
2023-03-03T17:36:46.988Z,14.43
2023-03-03T17:39:48.387Z,14.38
2023-03-03T17:42:26.534Z,14.34
2023-03-03T17:45:06.010Z,14.30
2023-03-03T17:47:51.432Z,14.24
2023-03-03T17:50:44.122Z,14.18
2023-03-03T17:54:07.820Z,14.11
2023-03-03T17:56:48.582Z,14.03
2023-03-03T17:59:48.012Z,13.96
2023-03-03T18:03:28.299Z,13.91
2023-03-03T18:06:39.431Z,13.83
2023-03-03T18:09:41.047Z,13.78
2023-03-03T18:12:24.885Z,13.74
2023-03-03T18:15:29.832Z,13.69
2023-03-03T18:18:53.508Z,13.65
2023-03-03T18:21:29.183Z,13.62
2023-03-03T18:24:28.759Z,13.55
2023-03-03T18:27:29.124Z,13.54
2023-03-03T18:30:33.881Z,13.44
2023-03-03T18:33:18.436Z,13.41
2023-03-03T18:35:51.280Z,13.38
2023-03-03T18:38:40.079Z,13.34
2023-03-03T18:41:15.074Z,13.30
2023-03-03T18:44:00.879Z,13.25
2023-03-03T18:46:53.609Z,13.20
2023-03-03T18:50:10.655Z,13.12
2023-03-03T18:53:28.863Z,13.04
2023-03-03T18:56:00.466Z,13.03
2023-03-03T18:58:45.507Z,12.98
2023-03-03T19:01:37.369Z,12.94
2023-03-03T19:04:26.330Z,12.89
2023-03-03T19:07:28.216Z,12.85
2023-03-03T19:10:05.999Z,12.81
2023-03-03T19:13:02.204Z,12.76
2023-03-03T19:15:58.606Z,12.71
2023-03-03T19:18:30.351Z,12.68
2023-03-03T19:21:02.979Z,12.66
2023-03-03T19:24:00.392Z,12.60
2023-03-03T19:27:26.910Z,12.54
2023-03-03T19:30:31.938Z,12.48
2023-03-03T19:33:53.456Z,12.42
2023-03-03T19:36:43.541Z,12.40
2023-03-03T19:39:46.463Z,12.36
2023-03-03T19:42:35.993Z,12.32
2023-03-03T19:45:24.241Z,12.27
2023-03-03T19:48:07.144Z,12.27
2023-03-03T19:50:49.690Z,12.23
2023-03-03T19:53:31.681Z,12.22
2023-03-03T19:56:24.552Z,12.18
2023-03-03T19:59:21.550Z,12.15
2023-03-03T20:02:21.824Z,12.12
2023-03-03T20:05:13.685Z,12.09
2023-03-03T20:07:53.695Z,12.06
2023-03-03T20:10:47.599Z,12.02
2023-03-03T20:13:46.674Z,11.99
2023-03-03T20:16:35.140Z,11.94
2023-03-03T20:19:31.215Z,11.90
2023-03-03T20:22:10.764Z,11.87
2023-03-03T20:25:09.553Z,11.83
2023-03-03T20:27:52.774Z,11.81
2023-03-03T20:30:43.825Z,11.76
2023-03-03T20:33:30.962Z,11.73
2023-03-03T20:36:18.435Z,11.69
2023-03-03T20:39:04.725Z,11.65
2023-03-03T20:41:55.078Z,11.61
2023-03-03T20:44:43.957Z,11.57
2023-03-03T20:47:24.266Z,11.53
2023-03-03T20:50:25.822Z,11.48
2023-03-03T20:53:10.357Z,11.44
2023-03-03T20:55:55.631Z,11.41
2023-03-03T20:58:39.787Z,11.37
2023-03-03T21:01:13.567Z,11.35
2023-03-03T21:03:46.153Z,11.31
2023-03-03T21:06:21.445Z,11.27
2023-03-03T21:08:57.550Z,11.24
2023-03-03T21:11:44.895Z,11.19
2023-03-03T21:14:24.744Z,11.15
2023-03-03T21:16:57.326Z,11.11
2023-03-03T21:19:31.215Z,11.08
2023-03-03T21:22:03.180Z,11.05
2023-03-03T21:24:54.919Z,10.98
2023-03-03T21:27:29.798Z,10.95
2023-03-03T21:30:11.610Z,10.91
2023-03-03T21:32:44.447Z,10.88
2023-03-03T21:35:16.439Z,10.84
2023-03-03T21:37:50.483Z,10.80
2023-03-03T21:40:25.527Z,10.75
2023-03-03T21:42:56.509Z,10.71
2023-03-03T21:45:25.850Z,10.68
2023-03-03T21:47:56.742Z,10.63
2023-03-03T21:50:27.369Z,10.59
2023-03-03T21:52:57.297Z,10.55
2023-03-03T21:55:26.844Z,10.51
2023-03-03T21:57:55.414Z,10.47
2023-03-03T22:00:24.487Z,10.44
2023-03-03T22:02:54.407Z,10.42
2023-03-03T22:05:23.153Z,10.38
2023-03-03T22:07:51.629Z,10.36
2023-03-03T22:10:21.488Z,10.33
2023-03-03T22:12:49.957Z,10.31
2023-03-03T22:15:18.592Z,10.28
2023-03-03T22:17:47.153Z,10.26
2023-03-03T22:20:17.793Z,10.23
2023-03-03T22:22:46.560Z,10.22
2023-03-03T22:25:15.095Z,10.20
2023-03-03T22:27:44.961Z,10.17
2023-03-03T22:30:14.961Z,10.16
2023-03-03T22:32:43.365Z,10.14
2023-03-03T22:35:12.115Z,10.12
2023-03-03T22:37:40.590Z,10.11
2023-03-03T22:40:11.016Z,10.09
2023-03-03T22:42:39.532Z,10.06
2023-03-03T22:45:11.337Z,10.04
2023-03-03T22:47:39.797Z,10.02
2023-03-03T22:50:09.995Z,10.00
2023-03-03T22:52:38.463Z,9.98
2023-03-03T22:55:08.661Z,9.95
2023-03-03T22:57:37.257Z,9.92
2023-03-03T23:00:11.668Z,9.88
2023-03-03T23:02:40.717Z,9.86
2023-03-03T23:05:11.114Z,9.83
2023-03-03T23:07:41.957Z,9.79
2023-03-03T23:10:12.258Z,9.77
2023-03-03T23:12:40.771Z,9.75
2023-03-03T23:15:14.326Z,9.71
2023-03-03T23:17:44.628Z,9.68
2023-03-03T23:20:15.895Z,9.65
2023-03-03T23:22:44.369Z,9.62
2023-03-03T23:25:13.840Z,9.61
2023-03-03T23:27:42.576Z,9.58
2023-03-03T23:30:15.910Z,9.56
2023-03-03T23:32:44.417Z,9.54
2023-03-03T23:35:12.943Z,9.52
2023-03-03T23:37:41.379Z,9.49
2023-03-03T23:40:12.115Z,9.46
2023-03-03T23:42:40.629Z,9.46
2023-03-03T23:45:12.757Z,9.43
2023-03-03T23:47:41.256Z,9.43
2023-03-03T23:50:11.996Z,9.41
2023-03-03T23:52:40.932Z,9.40
2023-03-03T23:55:10.804Z,9.36
2023-03-03T23:57:39.301Z,9.33
